Time;durP1;ratioP1;P1;durP2;ratioP2;P2;SDS_P1;SDS_P2;PMS_P1;PMS_P2;Temp;Humidity;BMP_temperature;BMP_pressure;BME280_temperature;BME280_humidity;BME280_pressure;Samples;Min_cycle;Max_cycle;Signal;HPM_P1;HPM_P2
2023/05/07 00:01:21;;;;;;;3.10;2.50;;;;;;;16.17;100.00;99064.09;4990523;28;20266;-79
2023/05/07 00:03:51;;;;;;;3.27;2.30;;;;;;;15.88;100.00;99056.81;4987267;28;20215;-80
2023/05/07 00:06:20;;;;;;;2.70;2.10;;;;;;;16.11;100.00;99051.28;4989906;28;20257;-79
2023/05/07 00:08:48;;;;;;;2.83;2.00;;;;;;;16.02;100.00;99047.63;4986225;28;20203;-79
2023/05/07 00:11:16;;;;;;;2.83;2.30;;;;;;;15.84;100.00;99060.75;4987169;28;20198;-79
2023/05/07 00:13:44;;;;;;;3.13;2.10;;;;;;;15.92;100.00;99066.28;4984300;28;20211;-79
2023/05/07 00:16:13;;;;;;;4.17;2.30;;;;;;;15.89;100.00;99066.53;4989426;28;20196;-79
2023/05/07 00:18:41;;;;;;;3.00;2.20;;;;;;;16.16;100.00;99065.94;4987274;28;20203;-79
2023/05/07 00:21:11;;;;;;;3.97;2.30;;;;;;;16.09;100.00;99063.94;4989697;28;20246;-79
2023/05/07 00:23:40;;;;;;;3.47;2.37;;;;;;;15.96;100.00;99057.00;4979884;28;20234;-79
2023/05/07 00:26:08;;;;;;;4.13;2.60;;;;;;;15.98;100.00;99062.22;4993814;28;20250;-79
2023/05/07 00:28:36;;;;;;;2.63;2.30;;;;;;;15.92;100.00;99060.94;4987938;28;20202;-79
2023/05/07 00:31:05;;;;;;;3.03;2.40;;;;;;;15.96;100.00;99061.50;4993726;28;20262;-79
2023/05/07 00:33:33;;;;;;;4.33;2.50;;;;;;;16.00;100.00;99062.91;4941714;28;20202;-79
2023/05/07 00:36:02;;;;;;;5.37;2.40;;;;;;;16.09;100.00;99061.25;4987953;28;20203;-78
2023/05/07 00:38:31;;;;;;;3.47;2.80;;;;;;;15.92;100.00;99063.59;4988543;28;20207;-79
2023/05/07 00:41:00;;;;;;;3.17;2.30;;;;;;;16.00;100.00;99057.56;4993699;28;20241;-79
2023/05/07 00:43:29;;;;;;;3.43;2.63;;;;;;;15.95;100.00;99066.00;4993743;28;20198;-79
2023/05/07 00:45:58;;;;;;;4.07;2.43;;;;;;;16.03;100.00;99058.16;4986422;28;20270;-79
2023/05/07 00:48:27;;;;;;;4.00;2.50;;;;;;;15.97;100.00;99055.19;4986958;28;20206;-78
2023/05/07 00:50:57;;;;;;;5.07;2.40;;;;;;;15.90;100.00;99059.34;4990051;28;20199;-79
2023/05/07 00:53:26;;;;;;;3.60;2.13;;;;;;;15.98;100.00;99057.72;4990723;28;20203;-80
2023/05/07 00:55:56;;;;;;;3.97;2.53;;;;;;;16.06;100.00;99049.03;4989613;28;20199;-79
2023/05/07 00:58:25;;;;;;;5.30;2.63;;;;;;;16.12;100.00;99047.66;4983587;28;20233;-79
2023/05/07 01:00:53;;;;;;;4.43;2.53;;;;;;;16.12;100.00;99053.00;4981003;28;20239;-79
2023/05/07 01:03:22;;;;;;;5.77;3.13;;;;;;;16.02;100.00;99043.13;4990760;28;20215;-79
2023/05/07 01:05:52;;;;;;;3.63;3.07;;;;;;;15.94;100.00;99048.28;4988365;28;20199;-79
2023/05/07 01:08:24;;;;;;;4.47;2.70;;;;;;;15.89;100.00;99047.81;4987007;28;20195;-79
2023/05/07 01:10:55;;;;;;;3.20;2.60;;;;;;;15.90;100.00;99049.50;4988258;28;20697;-79
2023/05/07 01:13:25;;;;;;;2.70;2.47;;;;;;;15.82;100.00;99052.00;4989989;28;20195;-79
2023/05/07 01:15:54;;;;;;;3.67;2.53;;;;;;;15.88;100.00;99050.63;4993386;28;20230;-79
2023/05/07 01:18:22;;;;;;;2.67;2.40;;;;;;;15.85;100.00;99049.09;4986754;28;20209;-79
2023/05/07 01:20:50;;;;;;;5.30;2.83;;;;;;;15.75;100.00;99048.19;4993223;28;20235;-79
2023/05/07 01:23:21;;;;;;;4.63;2.63;;;;;;;15.81;100.00;99046.81;4990075;28;20243;-79
2023/05/07 01:25:53;;;;;;;4.40;2.60;;;;;;;15.67;100.00;99054.19;4989444;28;20245;-80
2023/05/07 01:28:21;;;;;;;4.07;2.90;;;;;;;15.75;100.00;99056.22;4989500;28;20230;-79
2023/05/07 01:30:55;;;;;;;3.97;2.53;;;;;;;15.70;100.00;99048.59;4993242;28;20207;-79
2023/05/07 01:33:24;;;;;;;4.87;3.03;;;;;;;15.63;100.00;99050.13;4990412;28;20195;-79
2023/05/07 01:35:54;;;;;;;3.43;2.77;;;;;;;15.54;100.00;99058.00;4987093;28;20199;-80
2023/05/07 01:38:25;;;;;;;5.10;3.10;;;;;;;15.50;100.00;99065.44;4984278;28;20290;-79
2023/05/07 01:40:54;;;;;;;4.70;2.80;;;;;;;15.45;100.00;99068.53;4986739;28;20238;-79
2023/05/07 01:43:23;;;;;;;4.50;3.00;;;;;;;15.44;100.00;99060.63;4988829;28;20194;-78
2023/05/07 01:45:51;;;;;;;5.57;2.87;;;;;;;15.38;100.00;99067.34;4989111;28;20233;-79
2023/05/07 01:48:21;;;;;;;6.83;3.20;;;;;;;15.48;100.00;99062.06;4987066;28;20358;-79
2023/05/07 01:50:51;;;;;;;5.70;3.33;;;;;;;15.35;100.00;99067.63;4989847;28;20203;-79
2023/05/07 01:53:19;;;;;;;3.60;3.00;;;;;;;15.31;100.00;99070.66;4990074;28;20199;-79
2023/05/07 01:55:49;;;;;;;5.53;3.20;;;;;;;15.26;100.00;99063.06;4988951;28;20218;-79
2023/05/07 01:58:17;;;;;;;5.83;3.10;;;;;;;15.26;100.00;99068.41;4991492;28;20226;-79
2023/05/07 02:00:45;;;;;;;3.47;3.10;;;;;;;15.13;100.00;99063.25;4993180;28;20262;-78
2023/05/07 02:03:13;;;;;;;3.53;3.20;;;;;;;15.09;100.00;99063.63;4989345;28;20195;-79
2023/05/07 02:05:42;;;;;;;4.37;2.90;;;;;;;15.26;100.00;99059.56;4992142;28;20222;-79
2023/05/07 02:08:10;;;;;;;3.63;3.10;;;;;;;15.27;100.00;99062.09;4986602;28;20199;-79
2023/05/07 02:10:38;;;;;;;4.07;3.20;;;;;;;15.26;100.00;99057.72;4991963;28;20630;-79
2023/05/07 02:13:08;;;;;;;4.20;3.20;;;;;;;15.19;100.00;99059.22;4992189;28;20202;-79
2023/05/07 02:15:37;;;;;;;4.57;3.57;;;;;;;15.29;100.00;99057.47;4989323;28;20218;-79
2023/05/07 02:18:08;;;;;;;4.40;3.20;;;;;;;15.32;100.00;99059.84;4993313;28;20273;-79
2023/05/07 02:20:37;;;;;;;4.23;3.30;;;;;;;15.32;100.00;99056.34;4993421;28;20191;-80
2023/05/07 02:23:05;;;;;;;4.87;3.33;;;;;;;15.29;100.00;99068.13;4989690;28;20227;-79
2023/05/07 02:25:33;;;;;;;4.57;3.30;;;;;;;15.29;100.00;99065.47;4992443;28;20222;-79
2023/05/07 02:28:01;;;;;;;4.30;3.27;;;;;;;15.30;100.00;99067.16;4993196;28;20199;-79
2023/05/07 02:30:31;;;;;;;4.93;3.63;;;;;;;15.16;100.00;99070.16;4982523;28;20218;-79
2023/05/07 02:33:00;;;;;;;4.33;3.50;;;;;;;15.11;100.00;99067.88;4988916;28;20203;-80
2023/05/07 02:35:28;;;;;;;3.87;3.37;;;;;;;15.02;100.00;99076.63;4991459;28;20191;-79
2023/05/07 02:37:56;;;;;;;4.80;3.53;;;;;;;15.01;100.00;99080.28;4992039;28;20591;-79
2023/05/07 02:40:24;;;;;;;5.17;3.27;;;;;;;15.13;100.00;99073.91;4995935;28;20195;-79
2023/05/07 02:42:53;;;;;;;3.93;3.20;;;;;;;15.18;100.00;99084.22;4995616;28;20199;-79
2023/05/07 02:45:21;;;;;;;4.53;3.60;;;;;;;15.09;100.00;99085.81;4995723;28;20219;-79
2023/05/07 02:47:52;;;;;;;4.13;3.40;;;;;;;15.07;100.00;99089.59;4991734;28;20211;-78
2023/05/07 02:50:20;;;;;;;3.97;3.30;;;;;;;15.07;100.00;99077.13;4988993;28;20210;-79
2023/05/07 02:52:51;;;;;;;6.23;3.50;;;;;;;14.96;100.00;99090.50;4989094;28;20203;-78
2023/05/07 02:55:19;;;;;;;4.43;3.77;;;;;;;14.98;100.00;99085.88;4989802;28;20207;-79
2023/05/07 02:57:48;;;;;;;3.93;3.50;;;;;;;14.97;100.00;99086.84;4986508;28;20199;-80
2023/05/07 03:00:19;;;;;;;4.70;3.80;;;;;;;15.00;100.00;99086.59;4985478;28;20273;-80
2023/05/07 03:02:47;;;;;;;5.50;4.10;;;;;;;14.88;100.00;99091.13;4986625;28;20250;-79
2023/05/07 03:05:17;;;;;;;7.10;4.10;;;;;;;14.91;100.00;99083.84;4991684;28;20219;-79
2023/05/07 03:07:47;;;;;;;5.20;3.80;;;;;;;15.14;100.00;99078.25;4993921;28;20207;-79
2023/05/07 03:10:16;;;;;;;4.23;3.83;;;;;;;15.09;100.00;99080.50;4990585;28;20203;-78
2023/05/07 03:12:44;;;;;;;4.67;3.93;;;;;;;15.16;100.00;99083.50;4989768;28;20239;-79
2023/05/07 03:15:13;;;;;;;4.77;3.93;;;;;;;15.11;100.00;99086.53;4990899;28;20222;-79
2023/05/07 03:17:41;;;;;;;4.73;3.47;;;;;;;15.20;100.00;99082.25;4992310;28;20203;-80
2023/05/07 03:20:11;;;;;;;4.63;3.97;;;;;;;15.09;100.00;99084.97;4992451;28;20191;-80
2023/05/07 03:22:42;;;;;;;7.73;4.10;;;;;;;15.03;100.00;99080.16;4991574;28;20191;-79
2023/05/07 03:25:12;;;;;;;4.90;3.87;;;;;;;15.10;100.00;99070.66;4991194;28;20226;-79
2023/05/07 03:27:42;;;;;;;5.63;3.97;;;;;;;15.07;100.00;99065.59;4986661;28;20199;-79
2023/05/07 03:30:11;;;;;;;5.57;4.43;;;;;;;15.15;100.00;99073.78;4990361;28;20191;-79
2023/05/07 03:32:41;;;;;;;5.23;4.10;;;;;;;14.87;100.00;99067.25;4982477;28;20203;-79
2023/05/07 03:35:10;;;;;;;5.63;4.23;;;;;;;14.80;100.00;99071.41;4989327;28;20234;-79
2023/05/07 03:37:38;;;;;;;4.80;4.00;;;;;;;14.77;100.00;99072.50;4990702;28;20330;-79
2023/05/07 03:40:11;;;;;;;6.67;4.67;;;;;;;14.73;100.00;99075.53;4992150;28;20218;-79
2023/05/07 03:42:39;;;;;;;5.23;4.73;;;;;;;14.62;100.00;99072.91;4985956;28;20210;-79
2023/05/07 03:45:09;;;;;;;6.13;4.73;;;;;;;14.65;100.00;99081.50;4990544;28;20207;-79
2023/05/07 03:47:37;;;;;;;7.23;5.10;;;;;;;14.61;100.00;99077.41;4986937;28;20207;-79
2023/05/07 03:50:06;;;;;;;5.70;5.13;;;;;;;14.81;100.00;99083.75;4989324;28;20206;-79
2023/05/07 03:52:35;;;;;;;6.50;5.90;;;;;;;14.71;100.00;99088.16;4988220;28;20223;-79
2023/05/07 03:55:03;;;;;;;6.77;6.07;;;;;;;14.70;100.00;99087.31;4990536;28;20194;-79
2023/05/07 03:57:33;;;;;;;6.23;5.50;;;;;;;14.85;100.00;99075.38;4953501;29;20205;-79
2023/05/07 04:00:02;;;;;;;8.07;6.30;;;;;;;14.65;100.00;99083.31;4950782;29;21287;-79
2023/05/07 04:02:31;;;;;;;6.77;6.07;;;;;;;14.78;100.00;99082.19;4947787;29;20201;-78
2023/05/07 04:04:59;;;;;;;7.37;6.27;;;;;;;14.85;100.00;99085.19;4945607;28;20212;-79
2023/05/07 04:07:28;;;;;;;8.23;6.00;;;;;;;15.01;100.00;99087.44;4952202;29;20218;-79
2023/05/07 04:09:56;;;;;;;7.77;6.07;;;;;;;14.83;100.00;99082.66;4948228;29;20268;-79
2023/05/07 04:12:24;;;;;;;8.13;6.07;;;;;;;14.94;100.00;99092.44;4943475;29;20232;-80
2023/05/07 04:14:54;;;;;;;9.23;7.27;;;;;;;14.81;100.00;99095.28;4959431;28;20203;-79
2023/05/07 04:17:23;;;;;;;8.73;7.17;;;;;;;14.70;100.00;99099.81;4987842;28;20203;-79
2023/05/07 04:19:51;;;;;;;9.93;7.70;;;;;;;14.64;100.00;99098.47;4985445;28;20202;-79
2023/05/07 04:22:21;;;;;;;11.17;8.23;;;;;;;14.59;100.00;99098.00;4990048;28;20198;-80
2023/05/07 04:24:49;;;;;;;10.87;8.13;;;;;;;14.56;100.00;99108.91;4988838;28;20206;-79
2023/05/07 04:27:18;;;;;;;9.73;8.50;;;;;;;14.55;100.00;99097.41;4990830;28;20274;-79
2023/05/07 04:29:47;;;;;;;10.53;9.00;;;;;;;14.42;100.00;99106.50;4987831;28;20195;-79
2023/05/07 04:32:17;;;;;;;12.53;8.53;;;;;;;14.72;100.00;99111.19;4989414;28;20211;-79
2023/05/07 04:34:45;;;;;;;12.50;9.77;;;;;;;14.80;100.00;99114.91;4988039;28;20195;-79
2023/05/07 04:37:14;;;;;;;11.93;9.57;;;;;;;14.91;100.00;99111.34;4992605;28;20351;-80
2023/05/07 04:39:42;;;;;;;11.60;9.73;;;;;;;14.92;100.00;99106.88;4987908;28;20282;-79
2023/05/07 04:42:10;;;;;;;11.37;10.27;;;;;;;14.93;100.00;99105.91;4990749;28;20254;-79
2023/05/07 04:44:38;;;;;;;12.27;10.30;;;;;;;14.97;100.00;99110.03;4982230;28;20207;-79
2023/05/07 04:47:07;;;;;;;11.63;10.40;;;;;;;14.89;100.00;99114.16;4987147;28;20218;-79
2023/05/07 04:49:37;;;;;;;12.00;9.77;;;;;;;14.91;100.00;99107.84;4957887;28;20211;-79
2023/05/07 04:52:05;;;;;;;13.23;11.33;;;;;;;14.77;100.00;99107.19;4984278;28;20223;-79
2023/05/07 04:54:33;;;;;;;15.63;12.90;;;;;;;14.95;100.00;99109.28;4988105;28;20198;-78
2023/05/07 04:57:01;;;;;;;13.40;10.97;;;;;;;14.93;100.00;99125.41;4986073;28;20203;-78
2023/05/07 04:59:30;;;;;;;13.63;11.50;;;;;;;14.93;100.00;99121.91;4986407;28;20195;-78
2023/05/07 05:01:58;;;;;;;12.47;11.03;;;;;;;14.96;100.00;99126.97;4985657;28;20242;-78
2023/05/07 05:04:26;;;;;;;12.63;11.33;;;;;;;15.00;100.00;99129.28;4990015;28;20290;-78
2023/05/07 05:06:57;;;;;;;13.63;11.63;;;;;;;14.87;100.00;99134.78;4989061;28;20234;-79
2023/05/07 05:09:25;;;;;;;14.10;12.47;;;;;;;14.89;100.00;99140.81;4983852;28;20250;-83
2023/05/07 05:11:53;;;;;;;13.30;12.00;;;;;;;14.92;100.00;99141.53;4926919;29;20209;-78
2023/05/07 05:14:22;;;;;;;16.03;12.53;;;;;;;15.05;100.00;99144.88;4927433;29;20253;-79
2023/05/07 05:16:50;;;;;;;14.50;12.37;;;;;;;15.15;100.00;99149.34;4933221;29;20208;-79
2023/05/07 05:19:18;;;;;;;15.23;13.13;;;;;;;15.11;100.00;99147.06;4925753;29;20213;-79
2023/05/07 05:21:48;;;;;;;18.33;14.30;;;;;;;15.06;100.00;99150.13;4925510;29;20200;-79
2023/05/07 05:24:18;;;;;;;14.77;13.27;;;;;;;15.15;100.00;99152.03;4926677;29;20220;-79
2023/05/07 05:26:46;;;;;;;15.77;14.03;;;;;;;15.07;100.00;99149.13;4925990;29;20252;-79
2023/05/07 05:29:14;;;;;;;15.80;14.20;;;;;;;14.99;100.00;99153.41;4938721;28;20195;-78
2023/05/07 05:31:42;;;;;;;15.70;13.73;;;;;;;15.10;100.00;99156.88;4985913;28;20203;-78
2023/05/07 05:34:11;;;;;;;15.30;13.70;;;;;;;15.05;100.00;99156.41;4989338;28;20724;-79
2023/05/07 05:36:39;;;;;;;16.17;14.50;;;;;;;15.07;100.00;99154.47;4990172;28;20207;-79
2023/05/07 05:39:08;;;;;;;18.03;15.00;;;;;;;14.96;100.00;99159.84;4986833;28;20199;-79
2023/05/07 05:41:38;;;;;;;14.97;13.37;;;;;;;15.12;100.00;99160.25;4992554;28;20191;-78
2023/05/07 05:44:06;;;;;;;15.83;14.03;;;;;;;15.16;100.00;99168.88;4991161;28;20278;-78
2023/05/07 05:46:36;;;;;;;17.73;15.67;;;;;;;15.01;100.00;99165.63;4991289;28;20226;-78
2023/05/07 05:49:07;;;;;;;17.30;15.50;;;;;;;15.10;100.00;99169.38;4987649;28;20203;-79
2023/05/07 05:51:35;;;;;;;16.70;14.87;;;;;;;15.20;100.00;99172.97;4992395;28;20207;-78
2023/05/07 05:54:04;;;;;;;19.70;15.57;;;;;;;15.12;100.00;99170.09;4945257;29;20742;-80
2023/05/07 05:56:32;;;;;;;19.70;16.93;;;;;;;15.24;100.00;99176.22;4947042;28;20200;-80
2023/05/07 05:59:02;;;;;;;17.90;15.67;;;;;;;15.30;100.00;99163.22;4951602;29;20564;-78
2023/05/07 06:01:30;;;;;;;18.80;16.80;;;;;;;15.28;100.00;99169.69;4953092;29;20243;-78
2023/05/07 06:03:59;;;;;;;19.73;17.10;;;;;;;15.40;100.00;99165.97;4951355;29;20197;-79
2023/05/07 06:06:28;;;;;;;18.40;16.50;;;;;;;15.29;100.00;99161.53;4945695;29;20208;-79
2023/05/07 06:08:56;;;;;;;18.93;16.80;;;;;;;15.40;100.00;99165.97;4951160;29;20200;-78
2023/05/07 06:11:25;;;;;;;22.80;17.27;;;;;;;15.26;100.00;99163.63;4954332;28;20253;-78
2023/05/07 06:13:53;;;;;;;20.83;17.10;;;;;;;15.20;100.00;99153.44;4993392;28;20199;-79
2023/05/07 06:16:23;;;;;;;23.33;19.30;;;;;;;15.13;100.00;99158.44;4985647;28;20211;-79
2023/05/07 06:18:51;;;;;;;24.03;19.73;;;;;;;15.30;100.00;99163.22;4989828;28;20210;-79
2023/05/07 06:21:19;;;;;;;21.83;19.33;;;;;;;15.26;100.00;99161.81;4982195;28;20210;-79
2023/05/07 06:23:48;;;;;;;21.90;18.70;;;;;;;15.41;100.00;99171.19;4992915;28;20206;-79
2023/05/07 06:26:16;;;;;;;21.17;18.87;;;;;;;15.18;100.00;99175.78;4988553;28;20351;-79
2023/05/07 06:28:44;;;;;;;22.30;18.80;;;;;;;15.53;100.00;99168.44;4992972;28;20218;-79
2023/05/07 06:31:14;;;;;;;22.50;18.23;;;;;;;15.53;100.00;99168.44;4985665;28;20203;-78
2023/05/07 06:33:46;;;;;;;22.73;19.73;;;;;;;15.67;100.00;99170.84;4991948;28;20206;-79
2023/05/07 06:36:14;;;;;;;23.30;19.60;;;;;;;15.57;100.00;99186.78;4991714;28;20234;-79
2023/05/07 06:38:42;;;;;;;22.33;19.53;;;;;;;15.64;100.00;99188.00;4990465;28;20242;-78
2023/05/07 06:41:12;;;;;;;23.50;18.63;;;;;;;15.71;100.00;99188.28;4989705;28;20199;-79
2023/05/07 06:43:40;;;;;;;22.87;19.13;;;;;;;15.76;100.00;99186.09;4984804;28;20211;-79
2023/05/07 06:46:09;;;;;;;22.60;18.97;;;;;;;15.93;100.00;99187.34;4986603;28;20203;-79
2023/05/07 06:48:37;;;;;;;22.23;18.37;;;;;;;16.08;100.00;99186.00;4984440;28;20301;-79
2023/05/07 06:51:08;;;;;;;23.37;18.77;;;;;;;16.01;100.00;99188.34;4986257;28;20530;-79
2023/05/07 06:53:39;;;;;;;21.83;18.30;;;;;;;15.94;100.00;99183.69;4992585;28;20206;-79
2023/05/07 06:56:07;;;;;;;23.67;20.20;;;;;;;15.97;100.00;99180.75;4990488;28;20203;-80
2023/05/07 06:58:36;;;;;;;22.27;19.00;;;;;;;15.98;100.00;99187.78;4991409;28;20207;-79
2023/05/07 07:01:05;;;;;;;23.37;19.10;;;;;;;15.93;100.00;99180.16;4988716;28;20237;-79
2023/05/07 07:03:34;;;;;;;23.57;19.70;;;;;;;15.98;100.00;99185.09;4988664;28;20211;-79
2023/05/07 07:06:03;;;;;;;22.80;19.17;;;;;;;16.18;100.00;99175.34;4993185;28;20203;-79
2023/05/07 07:08:33;;;;;;;22.47;18.30;;;;;;;16.19;100.00;99177.91;4988985;28;20231;-79
2023/05/07 07:11:01;;;;;;;20.77;18.57;;;;;;;16.22;100.00;99187.50;4988580;28;20207;-79
2023/05/07 07:13:29;;;;;;;23.00;19.23;;;;;;;16.21;100.00;99175.09;4982910;28;20227;-79
2023/05/07 07:15:58;;;;;;;22.40;18.07;;;;;;;16.45;100.00;99178.31;4991710;28;20254;-80
2023/05/07 07:18:26;;;;;;;20.63;18.07;;;;;;;16.51;100.00;99176.94;4987104;28;20207;-79
2023/05/07 07:20:54;;;;;;;21.00;17.63;;;;;;;16.57;100.00;99176.38;4989566;28;20713;-78
2023/05/07 07:23:22;;;;;;;22.80;17.30;;;;;;;16.81;100.00;99178.72;4994508;28;20222;-79
2023/05/07 07:25:55;;;;;;;20.83;17.20;;;;;;;16.92;100.00;99178.63;4988019;28;20207;-79
2023/05/07 07:28:25;;;;;;;19.67;16.80;;;;;;;17.03;100.00;99169.63;4991506;28;20218;-80
2023/05/07 07:30:54;;;;;;;19.83;17.43;;;;;;;16.92;100.00;99181.28;4993801;28;20207;-79
2023/05/07 07:33:22;;;;;;;24.87;16.53;;;;;;;16.94;100.00;99178.47;4988341;28;20231;-80
2023/05/07 07:35:50;;;;;;;21.87;17.07;;;;;;;17.09;100.00;99177.09;4992837;28;20214;-79
2023/05/07 07:38:19;;;;;;;21.10;17.33;;;;;;;17.06;100.00;99174.69;4987116;28;20211;-79
2023/05/07 07:40:48;;;;;;;21.43;16.63;;;;;;;17.36;100.00;99174.56;4991011;28;20191;-79
2023/05/07 07:43:18;;;;;;;19.07;16.83;;;;;;;17.39;100.00;99178.81;4986937;28;20203;-79
2023/05/07 07:45:46;;;;;;;19.67;16.33;;;;;;;17.50;100.00;99169.78;4993519;28;20241;-79
2023/05/07 07:48:15;;;;;;;17.97;16.07;;;;;;;17.34;100.00;99173.00;4993490;28;20219;-79
2023/05/07 07:50:44;;;;;;;20.10;16.07;;;;;;;17.10;100.00;99171.59;4987170;28;20650;-80
2023/05/07 07:53:13;;;;;;;20.93;17.30;;;;;;;17.36;100.00;99174.56;4992233;28;20195;-79
2023/05/07 07:55:41;;;;;;;21.30;16.13;;;;;;;17.35;100.00;99175.53;4990004;28;20195;-79
2023/05/07 07:58:09;;;;;;;19.57;16.13;;;;;;;17.57;100.00;99174.44;4990701;28;20195;-80
2023/05/07 08:00:39;;;;;;;19.83;16.83;;;;;;;17.11;100.00;99173.28;4998127;28;20254;-80
2023/05/07 08:03:10;;;;;;;20.43;17.23;;;;;;;17.46;100.00;99182.59;4993448;28;20193;-80
2023/05/07 08:05:39;;;;;;;18.00;16.03;;;;;;;17.58;100.00;99180.63;4996648;28;20286;-79
2023/05/07 08:08:08;;;;;;;20.57;16.57;;;;;;;17.62;100.00;99180.19;4993724;28;20222;-79
2023/05/07 08:10:38;;;;;;;16.87;15.03;;;;;;;17.27;100.00;99187.94;4987985;28;20258;-79
2023/05/07 08:13:06;;;;;;;17.70;15.80;;;;;;;17.57;100.00;99184.31;4990133;28;20217;-79
2023/05/07 08:15:34;;;;;;;19.67;16.00;;;;;;;17.64;100.00;99185.41;4986811;28;20199;-79
2023/05/07 08:18:05;;;;;;;15.87;14.27;;;;;;;18.09;100.00;99177.59;4988656;28;20199;-79
2023/05/07 08:20:36;;;;;;;20.17;16.30;;;;;;;17.84;100.00;99172.84;4986031;28;20351;-81
2023/05/07 08:23:05;;;;;;;19.40;15.80;;;;;;;18.02;100.00;99173.81;4988038;28;20249;-80
2023/05/07 08:25:34;;;;;;;20.60;16.83;;;;;;;17.96;100.00;99172.56;4983712;28;20207;-80
2023/05/07 08:28:03;;;;;;;16.93;14.87;;;;;;;18.02;100.00;99169.28;4990774;28;20222;-79
2023/05/07 08:30:31;;;;;;;17.53;14.17;;;;;;;18.34;100.00;99165.41;4991123;28;20198;-80
2023/05/07 08:32:59;;;;;;;16.57;14.13;;;;;;;18.06;100.00;99167.19;4985610;28;20207;-80
2023/05/07 08:35:29;;;;;;;18.27;16.37;;;;;;;18.41;100.00;99169.16;4983854;28;20203;-80
2023/05/07 08:37:57;;;;;;;16.80;14.73;;;;;;;18.35;100.00;99161.72;4987862;28;20195;-80
2023/05/07 08:40:26;;;;;;;16.60;14.90;;;;;;;18.42;100.00;99165.47;4987445;28;20261;-80
2023/05/07 08:42:56;;;;;;;15.77;13.17;;;;;;;18.47;100.00;99168.56;4986684;28;20258;-80
2023/05/07 08:45:25;;;;;;;14.40;13.00;;;;;;;18.52;100.00;99171.66;4993596;28;20198;-79
2023/05/07 08:47:59;;;;;;;15.13;13.53;;;;;;;18.26;100.00;99168.81;4989609;28;20207;-80
2023/05/07 08:50:29;;;;;;;14.73;13.13;;;;;;;18.03;100.00;99172.81;4987993;28;20214;-80
2023/05/07 08:52:58;;;;;;;15.37;13.37;;;;;;;18.25;100.00;99171.66;4987211;28;20313;-79
2023/05/07 08:55:26;;;;;;;14.77;12.30;;;;;;;18.42;100.00;99170.84;4990763;28;20194;-79
2023/05/07 08:57:55;;;;;;;15.77;12.03;;;;;;;18.59;100.00;99164.69;4993691;28;20226;-80
2023/05/07 09:00:23;;;;;;;15.33;12.43;;;;;;;18.91;100.00;99174.16;4986210;28;20285;-80
2023/05/07 09:02:53;;;;;;;13.67;12.10;;;;;;;18.92;100.00;99172.34;4988371;28;20207;-79
2023/05/07 09:05:22;;;;;;;13.90;12.50;;;;;;;18.84;100.00;99159.66;4990507;28;20238;-80
2023/05/07 09:07:51;;;;;;;13.60;12.13;;;;;;;19.07;100.00;99171.66;4992035;28;20257;-79
2023/05/07 09:10:22;;;;;;;12.90;11.23;;;;;;;19.25;100.00;99165.47;4994311;28;20237;-80
2023/05/07 09:12:50;;;;;;;13.43;11.77;;;;;;;18.94;100.00;99168.50;4991984;28;20262;-79
2023/05/07 09:15:19;;;;;;;14.53;11.60;;;;;;;19.35;100.00;99164.38;4993642;28;20506;-79
2023/05/07 09:17:47;;;;;;;14.07;11.13;;;;;;;19.22;100.00;99161.25;4997687;28;20205;-79
2023/05/07 09:20:17;;;;;;;13.63;11.90;;;;;;;19.54;100.00;99159.84;4997354;28;20206;-79
2023/05/07 09:22:45;;;;;;;14.00;12.07;;;;;;;19.61;100.00;99159.09;4991230;28;20203;-79
2023/05/07 09:25:15;;;;;;;13.73;10.97;;;;;;;19.51;100.00;99163.69;4990031;28;20697;-80
2023/05/07 09:27:43;;;;;;;12.67;10.70;;;;;;;19.39;100.00;99160.38;4994379;28;20199;-79
2023/05/07 09:30:13;;;;;;;12.47;11.17;;;;;;;19.37;100.00;99164.22;4990241;28;20226;-79
2023/05/07 09:32:42;;;;;;;12.63;10.73;;;;;;;19.65;100.00;99173.06;4994208;28;20195;-80
2023/05/07 09:35:16;;;;;;;11.80;10.10;;;;;;;19.96;100.00;99168.91;4985920;28;20199;-80
2023/05/07 09:37:45;;;;;;;12.00;10.70;;;;;;;19.86;100.00;99173.56;4993168;28;20202;-79
2023/05/07 09:40:24;;;;;;;10.80;9.70;;;;;;;20.17;100.00;99175.78;4992949;28;20335;-80
2023/05/07 09:42:52;;;;;;;13.50;11.20;;;;;;;19.91;100.00;99167.72;4993412;28;20286;-81
2023/05/07 09:45:24;;;;;;;12.30;10.13;;;;;;;20.16;100.00;99169.56;4991676;28;20207;-79
2023/05/07 09:47:56;;;;;;;11.80;10.60;;;;;;;20.34;100.00;99160.56;4991597;28;20199;-80
2023/05/07 09:50:28;;;;;;;15.20;11.60;;;;;;;20.24;100.00;99158.00;4990208;28;20222;-80
2023/05/07 09:52:58;;;;;;;13.13;10.97;;;;;;;20.17;100.00;99160.50;4990616;28;20209;-80
2023/05/07 09:55:28;;;;;;;11.57;10.37;;;;;;;20.68;100.00;99149.84;4994078;28;20207;-80
2023/05/07 09:57:56;;;;;;;14.97;11.10;;;;;;;20.78;100.00;99150.53;4990827;28;20451;-79
2023/05/07 10:00:26;;;;;;;13.13;10.37;;;;;;;20.76;100.00;99155.25;4996667;28;20227;-79
2023/05/07 10:02:58;;;;;;;14.87;11.17;;;;;;;20.37;100.00;99158.44;4993302;28;20207;-80
2023/05/07 10:05:27;;;;;;;12.30;11.00;;;;;;;20.57;100.00;99156.34;4996571;28;20206;-80
2023/05/07 10:07:57;;;;;;;11.80;10.37;;;;;;;20.84;100.00;99152.56;4991777;28;20188;-80
2023/05/07 10:10:28;;;;;;;16.27;10.63;;;;;;;21.26;100.00;99152.53;4989844;28;20230;-79
2023/05/07 10:12:58;;;;;;;9.97;8.47;;;;;;;21.40;100.00;99148.31;4993515;28;20242;-80
2023/05/07 10:15:27;;;;;;;10.27;8.13;;;;;;;21.76;100.00;99142.59;4996048;28;20267;-80
2023/05/07 10:17:57;;;;;;;11.90;8.63;;;;;;;22.10;100.00;99140.56;4989761;28;20222;-79
2023/05/07 10:20:28;;;;;;;12.05;9.30;;;;;;;22.18;100.00;99148.63;4990418;28;20287;-80
2023/05/07 10:22:58;;;;;;;9.77;8.70;;;;;;;22.36;100.00;99153.81;4987984;28;20654;-80
2023/05/07 10:25:30;;;;;;;10.45;9.27;;;;;;;22.11;100.00;99141.41;4996625;28;20614;-80
2023/05/07 10:28:05;;;;;;;11.25;8.95;;;;;;;22.25;100.00;99149.63;4993460;28;20205;-80
2023/05/07 10:30:46;;;;;;;11.23;8.52;;;;;;;22.21;100.00;99150.16;4988562;28;20329;-80
2023/05/07 10:33:22;;;;;;;11.25;8.95;;;;;;;22.75;100.00;99163.78;4996103;28;20255;-81
2023/05/07 10:35:51;;;;;;;10.07;9.07;;;;;;;22.45;100.00;99150.06;4991006;28;20199;-80
2023/05/07 10:38:20;;;;;;;10.23;8.57;;;;;;;22.84;100.00;99152.78;4917111;29;20294;-80
2023/05/07 10:40:51;;;;;;;9.95;8.30;;;;;;;22.94;100.00;99157.97;4918989;29;20214;-80
2023/05/07 10:43:19;;;;;;;10.43;7.85;;;;;;;22.90;100.00;99156.66;4918291;29;20206;-82
2023/05/07 10:46:10;;;;;;;9.25;8.02;;;;;;;22.30;100.00;99159.06;4917967;29;20201;-80
2023/05/07 10:49:11;;;;;;;9.48;8.27;;;;;;;22.32;100.00;99155.19;4916374;29;20654;-79
2023/05/07 10:51:40;;;;;;;9.13;7.65;;;;;;;22.54;100.00;99159.81;4908063;29;20266;-79
2023/05/07 10:54:22;;;;;;;8.95;8.05;;;;;;;22.77;100.00;99162.56;4915163;29;20213;-79
2023/05/07 10:56:52;;;;;;;9.13;7.78;;;;;;;23.37;100.00;99150.28;4915721;29;20210;-79
2023/05/07 10:59:41;;;;;;;7.28;6.57;;;;;;;23.54;98.57;99154.50;4914347;29;20278;-79
2023/05/07 11:02:13;;;;;;;9.32;8.38;;;;;;;22.90;100.00;99153.09;4926048;28;20654;-80
2023/05/07 11:04:44;;;;;;;8.85;7.85;;;;;;;23.25;100.00;99152.53;4993291;28;20206;-79
2023/05/07 11:07:25;;;;;;;8.95;8.05;;;;;;;23.66;99.21;99147.69;4982306;28;20277;-80
2023/05/07 11:10:05;;;;;;;10.52;8.20;;;;;;;23.38;98.91;99152.78;4990123;28;20222;-79
2023/05/07 11:12:54;;;;;;;10.00;7.68;;;;;;;23.23;100.00;99148.34;4989105;28;20211;-80
2023/05/07 11:15:43;;;;;;;7.43;6.72;;;;;;;23.72;96.98;99148.81;4974371;28;20403;-79
2023/05/07 11:18:12;;;;;;;9.32;7.63;;;;;;;23.09;99.94;99141.84;4970274;28;20626;-79
2023/05/07 11:20:49;;;;;;;9.07;7.50;;;;;;;23.42;100.00;99145.16;4970231;28;20199;-79
2023/05/07 11:23:51;;;;;;;8.23;7.40;;;;;;;23.78;98.36;99142.69;4973919;28;20187;-79
2023/05/07 11:26:20;;;;;;;10.30;6.80;;;;;;;23.96;95.13;99134.25;4972580;28;20207;-80
2023/05/07 11:28:51;;;;;;;7.90;7.10;;;;;;;23.70;93.49;99142.75;4966444;28;20650;-79